createdAt,value
2017-07-04T00:00:27.936Z,959.84
2017-07-04T00:01:23.078Z,959.85
2017-07-04T00:02:23.271Z,959.86
2017-07-04T00:03:22.269Z,959.86
2017-07-04T00:04:22.286Z,959.89
2017-07-04T00:05:27.580Z,959.83
2017-07-04T00:06:22.759Z,959.84
2017-07-04T00:07:22.315Z,959.86
2017-07-04T00:08:27.706Z,959.86
2017-07-04T00:09:22.301Z,959.89
2017-07-04T00:10:22.479Z,959.89
2017-07-04T00:11:22.639Z,959.89
2017-07-04T00:12:21.904Z,959.89
2017-07-04T00:13:28.204Z,959.88
2017-07-04T00:14:27.632Z,959.90
2017-07-04T00:15:22.201Z,959.89
2017-07-04T00:16:22.936Z,959.88
2017-07-04T00:17:22.564Z,959.91
2017-07-04T00:18:27.937Z,959.90
2017-07-04T00:19:28.248Z,959.90
2017-07-04T00:20:22.249Z,959.87
2017-07-04T00:21:18.541Z,959.90
2017-07-04T00:22:23.122Z,959.84
2017-07-04T00:23:22.421Z,959.86
2017-07-04T00:24:22.249Z,959.91
2017-07-04T00:25:27.555Z,959.84
2017-07-04T00:26:27.833Z,959.85
2017-07-04T00:27:28.354Z,959.82
2017-07-04T00:28:23.360Z,959.80
2017-07-04T00:29:27.688Z,959.80
2017-07-04T00:30:22.868Z,959.79
2017-07-04T00:31:28.171Z,959.88
2017-07-04T00:32:22.256Z,959.82
2017-07-04T00:33:18.404Z,959.80
2017-07-04T00:34:27.732Z,959.80
2017-07-04T00:35:22.496Z,959.78
2017-07-04T00:36:24.694Z,959.81
2017-07-04T00:37:22.238Z,959.81
2017-07-04T00:38:27.564Z,959.83
2017-07-04T00:39:22.704Z,959.83
2017-07-04T00:40:22.277Z,959.81
2017-07-04T00:41:21.704Z,959.83
2017-07-04T00:42:27.980Z,959.88
2017-07-04T00:43:28.286Z,959.87
2017-07-04T00:44:27.580Z,959.87
2017-07-04T00:45:27.845Z,959.82
2017-07-04T00:46:23.068Z,959.82
2017-07-04T00:47:22.727Z,959.82
2017-07-04T00:48:22.290Z,959.80
2017-07-04T00:49:22.330Z,959.82
2017-07-04T00:50:28.155Z,959.84
2017-07-04T00:51:18.862Z,959.84
2017-07-04T00:52:22.333Z,959.82
2017-07-04T00:53:23.121Z,959.82
2017-07-04T00:54:28.409Z,959.82
2017-07-04T00:55:22.847Z,959.78
2017-07-04T00:56:28.123Z,959.78
2017-07-04T00:57:18.854Z,959.77
2017-07-04T00:58:34.518Z,959.78
2017-07-04T00:59:22.255Z,959.79
2017-07-04T01:00:22.310Z,959.79
2017-07-04T01:01:17.615Z,959.81
2017-07-04T01:02:28.343Z,959.79
2017-07-04T01:03:27.635Z,959.77
2017-07-04T01:04:22.823Z,959.78
2017-07-04T01:05:23.012Z,959.77
2017-07-04T01:06:24.469Z,959.77
2017-07-04T01:07:27.785Z,959.71
2017-07-04T01:08:22.975Z,959.78
2017-07-04T01:09:23.132Z,959.73
2017-07-04T01:10:28.441Z,959.75
2017-07-04T01:11:21.439Z,959.75
2017-07-04T01:12:28.437Z,959.73
2017-07-04T01:13:23.159Z,959.71
2017-07-04T01:14:23.231Z,959.72
2017-07-04T01:15:27.563Z,959.72
2017-07-04T01:16:20.265Z,959.71
2017-07-04T01:17:27.645Z,959.70
2017-07-04T01:18:28.026Z,959.71
2017-07-04T01:19:22.357Z,959.74
2017-07-04T01:20:27.614Z,959.75
2017-07-04T01:21:19.226Z,959.74
2017-07-04T01:22:27.560Z,959.75
2017-07-04T01:23:27.857Z,959.77
2017-07-04T01:24:22.431Z,959.75
2017-07-04T01:25:27.736Z,959.76
2017-07-04T01:26:22.869Z,959.80
2017-07-04T01:27:28.163Z,959.76
2017-07-04T01:28:23.317Z,959.73
2017-07-04T01:29:22.188Z,959.76
2017-07-04T01:30:28.676Z,959.75
2017-07-04T01:32:22.297Z,959.76
2017-07-04T01:33:28.137Z,959.77
2017-07-04T01:34:22.298Z,959.76
2017-07-04T01:35:22.965Z,959.76
2017-07-04T01:36:19.277Z,959.77
2017-07-04T01:37:22.368Z,959.74
2017-07-04T01:38:27.813Z,959.79
2017-07-04T01:39:28.115Z,959.72
2017-07-04T01:40:28.442Z,959.73
2017-07-04T01:41:22.944Z,959.75
2017-07-04T01:42:20.147Z,959.71
2017-07-04T01:43:22.256Z,959.74
2017-07-04T01:44:22.302Z,959.73
2017-07-04T01:45:22.376Z,959.78
2017-07-04T01:46:27.762Z,959.76
2017-07-04T01:47:22.955Z,959.76
2017-07-04T01:48:28.257Z,959.78
2017-07-04T01:49:22.247Z,959.74
2017-07-04T01:50:22.247Z,959.78
2017-07-04T01:51:24.799Z,959.78
2017-07-04T01:52:23.310Z,959.75
2017-07-04T01:53:27.197Z,959.78
2017-07-04T01:54:22.248Z,959.75
2017-07-04T01:55:22.266Z,959.77
2017-07-04T01:56:22.265Z,959.74
2017-07-04T01:57:27.746Z,959.76
2017-07-04T01:58:22.885Z,959.76
2017-07-04T01:59:23.114Z,959.72
2017-07-04T02:00:28.378Z,959.76
2017-07-04T02:01:27.688Z,959.70
2017-07-04T02:02:27.653Z,959.69
2017-07-04T02:03:23.141Z,959.69
2017-07-04T02:04:23.286Z,959.67
2017-07-04T02:05:27.574Z,959.69
2017-07-04T02:06:24.935Z,959.72
2017-07-04T02:07:28.251Z,959.70
2017-07-04T02:08:27.552Z,959.67
2017-07-04T02:09:22.276Z,959.70
2017-07-04T02:10:22.343Z,959.73
2017-07-04T02:11:18.644Z,959.69
2017-07-04T02:12:27.929Z,959.74
2017-07-04T02:13:22.964Z,959.72
2017-07-04T02:14:22.345Z,959.75
2017-07-04T02:15:27.724Z,959.74
2017-07-04T02:16:22.966Z,959.77
2017-07-04T02:17:22.965Z,959.76
2017-07-04T02:18:23.151Z,959.72
2017-07-04T02:19:24.169Z,959.76
2017-07-04T02:20:28.495Z,959.71
2017-07-04T02:21:24.856Z,959.72
2017-07-04T02:22:28.153Z,959.78
2017-07-04T02:23:23.295Z,959.76
2017-07-04T02:24:27.716Z,959.77
2017-07-04T02:25:22.336Z,959.72
2017-07-04T02:26:22.578Z,959.71
2017-07-04T02:27:18.572Z,959.74
2017-07-04T02:28:23.045Z,959.73
2017-07-04T02:29:22.360Z,959.74
2017-07-04T02:30:19.187Z,959.75
2017-07-04T02:32:27.946Z,959.73
2017-07-04T02:33:22.331Z,959.74
2017-07-04T02:34:27.678Z,959.75
2017-07-04T02:35:23.154Z,959.78
2017-07-04T02:36:19.733Z,959.78
2017-07-04T02:37:23.221Z,959.75
2017-07-04T02:38:28.463Z,959.78
2017-07-04T02:39:22.982Z,959.71
2017-07-04T02:40:22.328Z,959.71
2017-07-04T02:42:27.978Z,959.73
2017-07-04T02:43:22.264Z,959.71
2017-07-04T02:44:22.245Z,959.69
2017-07-04T02:45:22.222Z,959.69
2017-07-04T02:46:22.167Z,959.67
2017-07-04T02:47:23.349Z,959.72
2017-07-04T02:48:27.668Z,959.64
2017-07-04T02:49:22.262Z,959.70
2017-07-04T02:50:22.236Z,959.70
2017-07-04T02:51:24.686Z,959.73
2017-07-04T02:52:28.436Z,959.73
2017-07-04T02:53:22.241Z,959.72
2017-07-04T02:54:27.585Z,959.73
2017-07-04T02:55:22.182Z,959.68
2017-07-04T02:56:23.705Z,959.68
2017-07-04T02:57:22.785Z,959.71
2017-07-04T02:58:17.936Z,959.75
2017-07-04T02:59:28.190Z,959.72
2017-07-04T03:00:23.328Z,959.72
2017-07-04T03:01:27.696Z,959.77
2017-07-04T03:02:22.256Z,959.80
2017-07-04T03:03:24.105Z,959.78
2017-07-04T03:04:22.145Z,959.74
2017-07-04T03:05:23.118Z,959.75
2017-07-04T03:06:20.371Z,959.76
2017-07-04T03:07:27.772Z,959.78
2017-07-04T03:08:28.977Z,959.76
2017-07-04T03:09:23.224Z,959.80
2017-07-04T03:10:21.743Z,959.76
2017-07-04T03:12:22.317Z,959.74
2017-07-04T03:13:16.726Z,959.78
2017-07-04T03:14:28.323Z,959.72
2017-07-04T03:15:27.706Z,959.71
2017-07-04T03:16:23.192Z,959.75
2017-07-04T03:17:22.393Z,959.79
2017-07-04T03:18:27.713Z,959.75
2017-07-04T03:19:28.035Z,959.75
2017-07-04T03:20:22.326Z,959.70
2017-07-04T03:21:20.932Z,959.76
2017-07-04T03:22:22.314Z,959.80
2017-07-04T03:23:27.720Z,959.83
2017-07-04T03:24:22.275Z,959.82
2017-07-04T03:25:21.704Z,959.83
2017-07-04T03:26:22.247Z,959.77
2017-07-04T03:27:27.516Z,959.82
2017-07-04T03:28:22.239Z,959.83
2017-07-04T03:29:22.235Z,959.85
2017-07-04T03:30:22.191Z,959.80
2017-07-04T03:32:27.997Z,959.80
2017-07-04T03:33:22.311Z,959.83
2017-07-04T03:34:22.386Z,959.82
2017-07-04T03:35:22.250Z,959.84
2017-07-04T03:36:27.816Z,959.88
2017-07-04T03:37:22.360Z,959.87
2017-07-04T03:38:22.404Z,959.84
2017-07-04T03:39:22.194Z,959.87
2017-07-04T03:40:22.240Z,959.84
2017-07-04T03:42:28.465Z,959.88
2017-07-04T03:43:27.725Z,959.88
2017-07-04T03:44:28.904Z,959.87
2017-07-04T03:45:22.249Z,959.88
2017-07-04T03:46:27.557Z,959.86
2017-07-04T03:47:22.180Z,959.86
2017-07-04T03:48:27.653Z,959.87
2017-07-04T03:49:28.000Z,959.93
2017-07-04T03:50:23.153Z,959.92
2017-07-04T03:51:20.167Z,959.90
2017-07-04T03:52:23.346Z,959.95
2017-07-04T03:53:22.322Z,959.89
2017-07-04T03:54:28.265Z,959.93
2017-07-04T03:55:22.337Z,959.94
2017-07-04T03:56:22.238Z,959.93
2017-07-04T03:57:27.694Z,959.94
2017-07-04T03:58:22.307Z,959.93
2017-07-04T03:59:22.386Z,959.94
2017-07-04T04:00:27.666Z,959.95
2017-07-04T04:01:22.224Z,959.96
2017-07-04T04:02:27.550Z,959.97
2017-07-04T04:03:27.872Z,959.99
2017-07-04T04:04:22.256Z,959.96
2017-07-04T04:05:27.756Z,959.99
2017-07-04T04:06:20.286Z,959.97
2017-07-04T04:07:22.331Z,959.96
2017-07-04T04:08:22.245Z,959.99
2017-07-04T04:09:27.686Z,960.01
2017-07-04T04:10:22.221Z,960.02
2017-07-04T04:12:28.412Z,960.06
2017-07-04T04:13:22.192Z,960.07
2017-07-04T04:14:22.175Z,960.11
2017-07-04T04:15:28.454Z,960.12
2017-07-04T04:16:22.268Z,960.13
2017-07-04T04:17:22.082Z,960.12
2017-07-04T04:18:28.406Z,960.11
2017-07-04T04:19:27.686Z,960.13
2017-07-04T04:20:22.864Z,960.13
2017-07-04T04:21:25.203Z,960.11
2017-07-04T04:22:22.252Z,960.14
2017-07-04T04:23:22.291Z,960.17
2017-07-04T04:24:22.406Z,960.14
2017-07-04T04:25:27.469Z,960.14
2017-07-04T04:26:22.243Z,960.17
2017-07-04T04:27:24.232Z,960.22
2017-07-04T04:28:22.216Z,960.20
2017-07-04T04:29:22.245Z,960.18
2017-07-04T04:30:27.512Z,960.18
2017-07-04T04:32:22.622Z,960.20
2017-07-04T04:33:22.130Z,960.23
2017-07-04T04:34:23.291Z,960.22
2017-07-04T04:35:22.250Z,960.19
2017-07-04T04:36:22.232Z,960.19
2017-07-04T04:37:22.223Z,960.20
2017-07-04T04:38:22.245Z,960.21
2017-07-04T04:39:22.256Z,960.19
2017-07-04T04:40:22.245Z,960.19
2017-07-04T04:42:16.983Z,960.20
2017-07-04T04:43:22.318Z,960.20
2017-07-04T04:44:22.243Z,960.25
2017-07-04T04:45:22.235Z,960.24
2017-07-04T04:46:27.589Z,960.21
2017-07-04T04:47:22.364Z,960.23
2017-07-04T04:48:27.212Z,960.26
2017-07-04T04:49:27.522Z,960.24
2017-07-04T04:50:22.023Z,960.24
2017-07-04T04:51:26.288Z,960.27
2017-07-04T04:52:22.253Z,960.25
2017-07-04T04:53:22.248Z,960.27
2017-07-04T04:54:22.253Z,960.24
2017-07-04T04:55:22.276Z,960.32
2017-07-04T04:56:22.218Z,960.27
2017-07-04T04:57:22.277Z,960.28
2017-07-04T04:58:22.235Z,960.28
2017-07-04T04:59:28.259Z,960.26
2017-07-04T05:00:22.234Z,960.28
2017-07-04T05:02:22.254Z,960.31
2017-07-04T05:03:22.268Z,960.30
2017-07-04T05:04:27.665Z,960.29
2017-07-04T05:05:22.845Z,960.35
2017-07-04T05:06:20.986Z,960.32
2017-07-04T05:07:24.045Z,960.32
2017-07-04T05:08:28.346Z,960.36
2017-07-04T05:09:22.345Z,960.32
2017-07-04T05:10:27.633Z,960.35
2017-07-04T05:11:23.760Z,960.39
2017-07-04T05:12:28.064Z,960.35
2017-07-04T05:13:23.236Z,960.35
2017-07-04T05:14:27.515Z,960.34
2017-07-04T05:15:27.777Z,960.31
2017-07-04T05:16:18.165Z,960.36
2017-07-04T05:17:22.989Z,960.36
2017-07-04T05:18:28.268Z,960.30
2017-07-04T05:19:27.122Z,960.35
2017-07-04T05:20:29.225Z,960.35
2017-07-04T05:22:22.933Z,960.36
2017-07-04T05:23:28.381Z,960.36
2017-07-04T05:24:22.393Z,960.37
2017-07-04T05:25:28.262Z,960.37
2017-07-04T05:26:22.255Z,960.43
2017-07-04T05:27:27.103Z,960.37
2017-07-04T05:28:23.173Z,960.42
2017-07-04T05:29:29.229Z,960.39
2017-07-04T05:30:27.753Z,960.41
2017-07-04T05:31:28.034Z,960.42
2017-07-04T05:32:28.317Z,960.41
2017-07-04T05:33:22.199Z,960.41
2017-07-04T05:34:22.308Z,960.43
2017-07-04T05:35:23.142Z,960.46
2017-07-04T05:36:21.323Z,960.45
2017-07-04T05:37:27.735Z,960.45
2017-07-04T05:38:28.107Z,960.44
2017-07-04T05:39:28.405Z,960.42
2017-07-04T05:40:27.657Z,960.46
2017-07-04T05:41:22.785Z,960.50
2017-07-04T05:42:22.668Z,960.48
2017-07-04T05:43:27.676Z,960.49
2017-07-04T05:44:27.940Z,960.48
2017-07-04T05:45:23.160Z,960.49
2017-07-04T05:46:23.333Z,960.46
2017-07-04T05:47:21.823Z,960.49
2017-07-04T05:48:22.352Z,960.49
2017-07-04T05:49:21.847Z,960.48
2017-07-04T05:50:23.268Z,960.49
2017-07-04T06:02:26.242Z,960.50
2017-07-04T06:03:10.223Z,960.52
2017-07-04T06:04:22.509Z,960.50
2017-07-04T06:05:18.687Z,960.54
2017-07-04T06:06:18.709Z,960.52
2017-07-04T06:07:22.204Z,960.51
2017-07-04T06:08:22.342Z,960.53
2017-07-04T06:09:22.348Z,960.51
2017-07-04T06:10:22.207Z,960.50
2017-07-04T06:12:21.713Z,960.50
2017-07-04T06:13:17.943Z,960.52
2017-07-04T06:14:23.117Z,960.48
2017-07-04T06:15:23.299Z,960.50
2017-07-04T06:16:20.355Z,960.48
2017-07-04T06:17:21.716Z,960.49
2017-07-04T06:18:24.247Z,960.49
2017-07-04T06:19:22.267Z,960.46
2017-07-04T06:20:22.496Z,960.43
2017-07-04T06:21:23.067Z,960.45
2017-07-04T06:22:12.754Z,960.49
2017-07-04T06:23:27.957Z,960.47
2017-07-04T06:25:22.777Z,960.44
2017-07-04T06:26:23.069Z,960.44
2017-07-04T06:27:22.316Z,960.45
2017-07-04T06:28:20.191Z,960.39
2017-07-04T06:29:08.206Z,960.42
2017-07-04T06:30:18.470Z,960.40
2017-07-04T06:32:18.033Z,960.44
2017-07-04T06:33:28.366Z,960.40
2017-07-04T06:34:22.419Z,960.41
2017-07-04T06:35:28.184Z,960.41
2017-07-04T06:36:21.697Z,960.41
2017-07-04T06:37:23.185Z,960.41
2017-07-04T06:38:29.281Z,960.40
2017-07-04T06:39:27.633Z,960.44
2017-07-04T06:40:27.990Z,960.43
2017-07-04T06:41:28.299Z,960.44
2017-07-04T06:42:17.947Z,960.53
2017-07-04T06:43:21.674Z,960.51
2017-07-04T06:44:22.247Z,960.53
2017-07-04T06:45:21.735Z,960.56
2017-07-04T06:46:22.969Z,960.55
2017-07-04T06:47:22.951Z,960.51
2017-07-04T06:48:27.651Z,960.50
2017-07-04T06:49:22.243Z,960.50
2017-07-04T06:50:22.034Z,960.48
2017-07-04T06:51:28.246Z,960.48
2017-07-04T06:52:25.438Z,960.46
2017-07-04T06:53:22.457Z,960.50
2017-07-04T06:54:22.230Z,960.47
2017-07-04T06:55:22.227Z,960.46
2017-07-04T06:56:22.212Z,960.52
2017-07-04T06:57:22.220Z,960.45
2017-07-04T06:58:27.626Z,960.47
2017-07-04T06:59:28.011Z,960.44
2017-07-04T07:00:22.279Z,960.45
2017-07-04T07:02:27.668Z,960.40
2017-07-04T07:03:21.926Z,960.39
2017-07-04T07:04:22.508Z,960.39
2017-07-04T07:05:22.241Z,960.39
2017-07-04T07:06:21.952Z,960.40
2017-07-04T07:07:22.331Z,960.40
2017-07-04T07:08:30.737Z,960.37
2017-07-04T07:09:27.675Z,960.39
2017-07-04T07:10:22.292Z,960.38
2017-07-04T07:12:22.245Z,960.38
2017-07-04T07:13:27.678Z,960.39
2017-07-04T07:14:22.297Z,960.41
2017-07-04T07:15:28.106Z,960.41
2017-07-04T07:16:22.348Z,960.39
2017-07-04T07:17:27.874Z,960.37
2017-07-04T07:18:28.017Z,960.32
2017-07-04T07:19:23.229Z,960.32
2017-07-04T07:20:22.249Z,960.31
2017-07-04T07:22:22.792Z,960.35
2017-07-04T07:23:23.063Z,960.34
2017-07-04T07:24:23.263Z,960.37
2017-07-04T07:25:22.239Z,960.37
2017-07-04T07:26:28.268Z,960.34
2017-07-04T07:27:22.348Z,960.31
2017-07-04T07:28:27.676Z,960.36
2017-07-04T07:29:27.560Z,960.31
2017-07-04T07:30:27.926Z,960.32
2017-07-04T07:32:21.888Z,960.32
2017-07-04T07:33:27.697Z,960.33
2017-07-04T07:34:27.678Z,960.30
2017-07-04T07:35:22.288Z,960.35
2017-07-04T07:36:25.567Z,960.33
2017-07-04T07:37:22.318Z,960.33
2017-07-04T07:38:27.775Z,960.34
2017-07-04T07:39:28.964Z,960.35
2017-07-04T07:40:22.314Z,960.32
2017-07-04T07:41:21.934Z,960.35
2017-07-04T07:42:22.337Z,960.31
2017-07-04T07:43:27.785Z,960.31
2017-07-04T07:44:22.346Z,960.28
2017-07-04T07:45:22.659Z,960.30
2017-07-04T07:46:22.275Z,960.28
2017-07-04T07:47:22.640Z,960.32
2017-07-04T07:48:22.234Z,960.28
2017-07-04T07:49:27.694Z,960.31
2017-07-04T07:50:28.218Z,960.33
2017-07-04T07:52:17.351Z,960.36
2017-07-04T07:53:22.342Z,960.35
2017-07-04T07:54:22.378Z,960.34
2017-07-04T07:55:22.262Z,960.34
2017-07-04T07:56:17.353Z,960.33
2017-07-04T07:57:22.227Z,960.34
2017-07-04T07:58:22.247Z,960.34
2017-07-04T07:59:28.007Z,960.30
2017-07-04T08:00:28.302Z,960.30
2017-07-04T08:02:28.388Z,960.29
2017-07-04T08:03:27.719Z,960.27
2017-07-04T08:04:22.056Z,960.28
2017-07-04T08:05:22.335Z,960.24
2017-07-04T08:06:27.702Z,960.28
2017-07-04T08:07:27.699Z,960.30
2017-07-04T08:08:22.318Z,960.27
2017-07-04T08:09:27.719Z,960.33
2017-07-04T08:10:22.295Z,960.30
2017-07-04T08:12:22.210Z,960.26
2017-07-04T08:13:27.551Z,960.24
2017-07-04T08:14:27.933Z,960.27
2017-07-04T08:15:22.371Z,960.26
2017-07-04T08:16:22.241Z,960.24
2017-07-04T08:17:27.763Z,960.25
2017-07-04T08:18:22.341Z,960.25
2017-07-04T08:19:21.487Z,960.22
2017-07-04T08:20:22.200Z,960.22
2017-07-04T08:22:27.722Z,960.24
2017-07-04T08:23:22.304Z,960.19
2017-07-04T08:24:27.687Z,960.24
2017-07-04T08:25:22.318Z,960.23
2017-07-04T08:26:27.903Z,960.24
2017-07-04T08:27:22.338Z,960.24
2017-07-04T08:28:27.668Z,960.24
2017-07-04T08:29:22.311Z,960.26
2017-07-04T08:30:27.686Z,960.26
2017-07-04T08:32:22.221Z,960.24
2017-07-04T08:33:22.274Z,960.23
2017-07-04T08:34:22.243Z,960.26
2017-07-04T08:35:22.248Z,960.24
2017-07-04T08:36:21.956Z,960.24
2017-07-04T08:37:23.156Z,960.22
2017-07-04T08:38:22.325Z,960.21
2017-07-04T08:39:27.738Z,960.21
2017-07-04T08:40:22.867Z,960.20
2017-07-04T08:41:23.027Z,960.24
2017-07-04T08:42:22.566Z,960.23
2017-07-04T08:43:22.236Z,960.21
2017-07-04T08:44:22.255Z,960.25
2017-07-04T08:45:28.280Z,960.21
2017-07-04T08:46:27.734Z,960.25
2017-07-04T08:47:22.330Z,960.25
2017-07-04T08:48:27.648Z,960.23
2017-07-04T08:49:22.856Z,960.21
2017-07-04T08:50:23.049Z,960.18
2017-07-04T08:52:23.135Z,960.17
2017-07-04T08:53:23.273Z,960.15
2017-07-04T08:54:22.260Z,960.18
2017-07-04T08:55:27.620Z,960.17
2017-07-04T08:56:27.969Z,960.17
2017-07-04T08:57:23.017Z,960.15
2017-07-04T08:58:28.289Z,960.16
2017-07-04T08:59:27.636Z,960.13
2017-07-04T09:00:28.177Z,960.14
2017-07-04T09:02:27.629Z,960.12
2017-07-04T09:03:22.632Z,960.07
2017-07-04T09:04:28.123Z,960.08
2017-07-04T09:05:22.272Z,960.05
2017-07-04T09:06:22.402Z,960.04
2017-07-04T09:07:19.687Z,960.00
2017-07-04T09:08:22.240Z,960.06
2017-07-04T09:09:22.247Z,960.04
2017-07-04T09:10:22.260Z,960.07
2017-07-04T09:12:23.334Z,960.01
2017-07-04T09:13:22.455Z,959.96
2017-07-04T09:14:27.921Z,959.99
2017-07-04T09:15:28.206Z,960.02
2017-07-04T09:16:22.223Z,959.97
2017-07-04T09:17:27.700Z,960.03
2017-07-04T09:18:28.026Z,959.95
2017-07-04T09:19:23.046Z,959.96
2017-07-04T09:20:23.239Z,959.92
2017-07-04T09:22:27.457Z,959.85
2017-07-04T09:23:27.787Z,959.88
2017-07-04T09:24:23.028Z,959.88
2017-07-04T09:25:22.941Z,959.88
2017-07-04T09:26:23.142Z,959.85
2017-07-04T09:27:23.323Z,959.83
2017-07-04T09:28:23.405Z,959.85
2017-07-04T09:29:22.246Z,959.86
2017-07-04T09:30:27.609Z,959.89
2017-07-04T09:31:22.821Z,959.83
2017-07-04T09:32:22.326Z,959.81
2017-07-04T09:33:22.335Z,959.78
2017-07-04T09:34:22.570Z,959.76
2017-07-04T09:35:27.936Z,959.77
2017-07-04T09:36:16.990Z,959.81
2017-07-04T09:37:27.976Z,959.75
2017-07-04T09:38:23.997Z,959.76
2017-07-04T09:39:28.357Z,959.80
2017-07-04T09:40:32.385Z,959.75
2017-07-04T09:42:22.873Z,959.80
2017-07-04T09:43:28.093Z,959.78
2017-07-04T09:44:23.125Z,959.87
2017-07-04T09:45:20.105Z,959.76
2017-07-04T09:46:28.406Z,959.75
2017-07-04T09:47:27.789Z,959.80
2017-07-04T09:48:22.957Z,959.78
2017-07-04T09:49:23.182Z,959.82
2017-07-04T09:50:27.645Z,959.81
2017-07-04T09:52:22.830Z,959.78
2017-07-04T09:53:22.316Z,959.78
2017-07-04T09:54:22.356Z,959.73
2017-07-04T09:55:22.266Z,959.74
2017-07-04T09:56:27.736Z,959.71
2017-07-04T09:57:22.338Z,959.71
2017-07-04T09:58:22.965Z,959.68
2017-07-04T09:59:22.365Z,959.69
2017-07-04T10:00:25.399Z,959.76
2017-07-04T10:02:23.515Z,959.76
2017-07-04T10:03:16.755Z,959.69
2017-07-04T10:04:22.257Z,959.63
2017-07-04T10:05:22.247Z,959.68
2017-07-04T10:06:22.324Z,959.67
2017-07-04T10:07:28.004Z,959.67
2017-07-04T10:08:22.257Z,959.63
2017-07-04T10:09:27.696Z,959.65
2017-07-04T10:10:28.086Z,959.61
2017-07-04T10:11:25.739Z,959.62
2017-07-04T10:12:28.106Z,959.63
2017-07-04T10:13:22.278Z,959.60
2017-07-04T10:14:22.527Z,959.66
2017-07-04T10:15:27.892Z,959.62
2017-07-04T10:16:23.076Z,959.66
2017-07-04T10:17:22.606Z,959.59
2017-07-04T10:18:22.321Z,959.63
2017-07-04T10:19:22.254Z,959.63
2017-07-04T10:20:22.228Z,959.62
2017-07-04T10:22:22.428Z,959.59
2017-07-04T10:23:22.336Z,959.65
2017-07-04T10:24:27.805Z,959.65
2017-07-04T10:25:27.754Z,959.56
2017-07-04T10:26:23.135Z,959.59
2017-07-04T10:27:23.023Z,959.61
2017-07-04T10:28:22.336Z,959.56
2017-07-04T10:29:27.829Z,959.63
2017-07-04T10:30:22.336Z,959.64
2017-07-04T10:32:23.361Z,959.61
2017-07-04T10:33:22.346Z,959.58
2017-07-04T10:34:22.351Z,959.59
2017-07-04T10:35:22.156Z,959.61
2017-07-04T10:36:28.604Z,959.63
2017-07-04T10:37:28.046Z,959.56
2017-07-04T10:38:22.096Z,959.58
2017-07-04T10:39:28.367Z,959.53
2017-07-04T10:40:22.414Z,959.53
2017-07-04T10:42:22.668Z,959.51
2017-07-04T10:43:22.726Z,959.48
2017-07-04T10:44:22.325Z,959.50
2017-07-04T10:45:22.347Z,959.50
2017-07-04T10:46:22.375Z,959.53
2017-07-04T10:47:22.399Z,959.46
2017-07-04T10:48:18.975Z,959.47
2017-07-04T10:49:22.286Z,959.47
2017-07-04T10:50:30.739Z,959.41
2017-07-04T10:51:23.255Z,959.36
2017-07-04T10:52:22.251Z,959.45
2017-07-04T10:53:27.597Z,959.51
2017-07-04T10:54:27.987Z,959.51
2017-07-04T10:55:23.189Z,959.53
2017-07-04T10:56:23.659Z,959.45
2017-07-04T10:57:25.359Z,959.48
2017-07-04T10:58:27.851Z,959.43
2017-07-04T10:59:22.854Z,959.42
2017-07-04T11:00:22.857Z,959.45
2017-07-04T11:02:28.001Z,959.43
2017-07-04T11:03:22.335Z,959.41
2017-07-04T11:04:22.327Z,959.42
2017-07-04T11:05:27.770Z,959.37
2017-07-04T11:06:28.205Z,959.44
2017-07-04T11:07:22.277Z,959.41
2017-07-04T11:08:22.461Z,959.34
2017-07-04T11:09:27.877Z,959.35
2017-07-04T11:10:22.338Z,959.39
2017-07-04T11:12:22.115Z,959.37
2017-07-04T11:13:28.412Z,959.33
2017-07-04T11:14:22.298Z,959.33
2017-07-04T11:15:22.176Z,959.34
2017-07-04T11:16:23.278Z,959.40
2017-07-04T11:17:22.188Z,959.30
2017-07-04T11:18:22.246Z,959.30
2017-07-04T11:19:27.729Z,959.28
2017-07-04T11:20:22.231Z,959.22
2017-07-04T11:22:27.736Z,959.26
2017-07-04T11:23:22.347Z,959.22
2017-07-04T11:24:27.737Z,959.21
2017-07-04T11:25:28.037Z,959.18
2017-07-04T11:26:22.566Z,959.19
2017-07-04T11:27:12.209Z,959.19
2017-07-04T11:28:10.847Z,959.20
2017-07-04T11:29:09.972Z,959.19
2017-07-04T11:30:22.296Z,959.07
2017-07-04T11:32:22.251Z,959.09
2017-07-04T11:33:22.206Z,959.06
2017-07-04T11:34:22.204Z,959.09
2017-07-04T11:35:22.222Z,959.13
2017-07-04T11:36:23.088Z,959.08
2017-07-04T11:37:23.269Z,959.03
2017-07-04T11:38:22.239Z,959.06
2017-07-04T11:39:18.654Z,959.08
2017-07-04T11:40:22.326Z,959.06
2017-07-04T11:42:25.519Z,959.13
2017-07-04T11:43:25.596Z,959.15
2017-07-04T11:44:22.339Z,959.10
2017-07-04T11:45:22.272Z,959.11
2017-07-04T11:46:22.249Z,959.09
2017-07-04T11:47:22.249Z,959.16
2017-07-04T11:48:22.255Z,959.13
2017-07-04T11:49:22.262Z,959.10
2017-07-04T11:50:22.145Z,959.06
2017-07-04T11:52:22.721Z,959.13
2017-07-04T11:53:22.288Z,959.10
2017-07-04T11:54:22.352Z,959.10
2017-07-04T11:55:22.232Z,959.13
2017-07-04T11:56:22.196Z,959.12
2017-07-04T11:57:27.739Z,959.08
2017-07-04T11:58:22.329Z,959.10
2017-07-04T11:59:27.852Z,959.08
2017-07-04T12:00:22.297Z,959.11
2017-07-04T12:02:22.272Z,959.10
2017-07-04T12:03:27.710Z,959.09
2017-07-04T12:04:29.057Z,959.06
2017-07-04T12:05:22.337Z,959.03
2017-07-04T12:06:22.247Z,959.02
2017-07-04T12:07:22.133Z,959.01
2017-07-04T12:08:22.277Z,959.05
2017-07-04T12:09:22.249Z,959.01
2017-07-04T12:10:22.225Z,958.99
2017-07-04T12:12:27.429Z,958.99
2017-07-04T12:13:22.262Z,958.98
2017-07-04T12:14:27.861Z,959.03
2017-07-04T12:15:16.858Z,958.97
2017-07-04T12:16:17.000Z,958.98
2017-07-04T12:17:22.247Z,959.02
2017-07-04T12:18:27.636Z,958.99
2017-07-04T12:19:22.721Z,958.99
2017-07-04T12:20:16.416Z,958.99
2017-07-04T12:21:18.535Z,958.93
2017-07-04T12:22:27.892Z,958.89
2017-07-04T12:23:22.334Z,958.94
2017-07-04T12:24:27.812Z,958.91
2017-07-04T12:25:22.917Z,958.93
2017-07-04T12:26:23.173Z,958.95
2017-07-04T12:27:23.351Z,958.93
2017-07-04T12:28:27.779Z,958.96
2017-07-04T12:29:22.345Z,958.95
2017-07-04T12:30:27.511Z,958.92
2017-07-04T12:32:22.581Z,959.01
2017-07-04T12:33:22.246Z,958.94
2017-07-04T12:34:22.221Z,958.93
2017-07-04T12:35:22.196Z,958.93
2017-07-04T12:36:22.228Z,958.89
2017-07-04T12:37:22.138Z,958.89
2017-07-04T12:38:23.654Z,958.92
2017-07-04T12:39:22.329Z,958.88
2017-07-04T12:40:22.263Z,958.90
2017-07-04T12:42:22.254Z,958.89
2017-07-04T12:43:22.240Z,958.85
2017-07-04T12:44:22.247Z,958.87
2017-07-04T12:45:22.246Z,958.82
2017-07-04T12:46:22.239Z,958.88
2017-07-04T12:47:22.276Z,958.85
2017-07-04T12:48:27.717Z,958.80
2017-07-04T12:49:22.340Z,958.81
2017-07-04T12:50:28.223Z,958.81
2017-07-04T12:52:25.488Z,958.74
2017-07-04T12:53:22.239Z,958.78
2017-07-04T12:54:27.661Z,958.73
2017-07-04T12:55:22.301Z,958.70
2017-07-04T12:56:23.300Z,958.73
2017-07-04T12:57:27.738Z,958.73
2017-07-04T12:58:22.919Z,958.77
2017-07-04T12:59:22.353Z,958.68
2017-07-04T13:00:27.709Z,958.68
2017-07-04T13:01:28.064Z,958.67
2017-07-04T13:02:23.283Z,958.67
2017-07-04T13:03:22.341Z,958.63
2017-07-04T13:04:22.360Z,958.74
2017-07-04T13:05:28.188Z,958.68
2017-07-04T13:06:22.244Z,958.71
2017-07-04T13:07:22.242Z,958.71
2017-07-04T13:08:22.240Z,958.70
2017-07-04T13:09:22.236Z,958.67
2017-07-04T13:10:27.729Z,958.64
2017-07-04T13:12:23.113Z,958.67
2017-07-04T13:13:22.481Z,958.65
2017-07-04T13:14:22.028Z,958.66
2017-07-04T13:15:23.048Z,958.64
2017-07-04T13:16:23.272Z,958.63
2017-07-04T13:17:27.780Z,958.60
2017-07-04T13:18:27.746Z,958.58
2017-07-04T13:19:25.370Z,958.58
2017-07-04T13:20:18.208Z,958.56
2017-07-04T13:22:23.046Z,958.53
2017-07-04T13:23:23.529Z,958.56
2017-07-04T13:24:27.876Z,958.54
2017-07-04T13:25:22.532Z,958.51